sensor_id;sensor_type;location;lat;lon;timestamp;P1;durP1;ratioP1;P2;durP2;ratioP2
56173;SDS011;42058;52.308;20.924;2024-01-10T00:02:20;90.00;;;30.60;;
56173;SDS011;42058;52.308;20.924;2024-01-10T00:04:47;90.40;;;30.30;;
56173;SDS011;42058;52.308;20.924;2024-01-10T00:07:13;114.60;;;33.90;;
56173;SDS011;42058;52.308;20.924;2024-01-10T00:09:40;117.40;;;36.10;;
56173;SDS011;42058;52.308;20.924;2024-01-10T00:12:06;97.00;;;32.30;;
56173;SDS011;42058;52.308;20.924;2024-01-10T00:14:32;69.90;;;23.40;;
56173;SDS011;42058;52.308;20.924;2024-01-10T00:16:59;85.00;;;29.80;;
56173;SDS011;42058;52.308;20.924;2024-01-10T00:19:25;93.00;;;29.30;;
56173;SDS011;42058;52.308;20.924;2024-01-10T00:21:51;95.10;;;30.40;;
56173;SDS011;42058;52.308;20.924;2024-01-10T00:24:17;76.00;;;27.40;;
56173;SDS011;42058;52.308;20.924;2024-01-10T00:26:43;113.00;;;38.50;;
56173;SDS011;42058;52.308;20.924;2024-01-10T00:29:10;105.30;;;34.90;;
56173;SDS011;42058;52.308;20.924;2024-01-10T00:31:36;100.50;;;30.20;;
56173;SDS011;42058;52.308;20.924;2024-01-10T00:34:02;136.20;;;38.60;;
56173;SDS011;42058;52.308;20.924;2024-01-10T00:36:29;85.20;;;30.10;;
56173;SDS011;42058;52.308;20.924;2024-01-10T00:38:55;107.90;;;33.80;;
56173;SDS011;42058;52.308;20.924;2024-01-10T00:41:22;118.20;;;37.60;;
56173;SDS011;42058;52.308;20.924;2024-01-10T00:43:48;109.60;;;33.50;;
56173;SDS011;42058;52.308;20.924;2024-01-10T00:46:14;123.60;;;37.70;;
56173;SDS011;42058;52.308;20.924;2024-01-10T00:48:40;118.90;;;39.50;;
56173;SDS011;42058;52.308;20.924;2024-01-10T00:51:07;107.80;;;34.90;;
56173;SDS011;42058;52.308;20.924;2024-01-10T00:53:34;111.50;;;36.20;;
56173;SDS011;42058;52.308;20.924;2024-01-10T00:56:01;93.20;;;30.20;;
56173;SDS011;42058;52.308;20.924;2024-01-10T00:58:27;127.40;;;37.90;;
56173;SDS011;42058;52.308;20.924;2024-01-10T01:00:53;121.70;;;36.90;;
56173;SDS011;42058;52.308;20.924;2024-01-10T01:03:19;92.70;;;31.80;;
56173;SDS011;42058;52.308;20.924;2024-01-10T01:05:46;111.50;;;35.80;;
56173;SDS011;42058;52.308;20.924;2024-01-10T01:08:12;112.00;;;36.50;;
56173;SDS011;42058;52.308;20.924;2024-01-10T01:10:38;90.30;;;29.70;;
56173;SDS011;42058;52.308;20.924;2024-01-10T01:13:05;104.00;;;31.30;;
56173;SDS011;42058;52.308;20.924;2024-01-10T01:15:31;93.70;;;27.60;;
56173;SDS011;42058;52.308;20.924;2024-01-10T01:17:57;99.20;;;31.50;;
56173;SDS011;42058;52.308;20.924;2024-01-10T01:20:24;82.90;;;24.10;;
56173;SDS011;42058;52.308;20.924;2024-01-10T01:22:50;116.30;;;36.50;;
56173;SDS011;42058;52.308;20.924;2024-01-10T01:25:16;104.20;;;36.10;;
56173;SDS011;42058;52.308;20.924;2024-01-10T01:27:43;105.10;;;35.00;;
56173;SDS011;42058;52.308;20.924;2024-01-10T01:30:09;77.30;;;26.30;;
56173;SDS011;42058;52.308;20.924;2024-01-10T01:32:37;104.70;;;33.70;;
56173;SDS011;42058;52.308;20.924;2024-01-10T01:35:04;100.60;;;32.60;;
56173;SDS011;42058;52.308;20.924;2024-01-10T01:37:30;80.90;;;27.90;;
56173;SDS011;42058;52.308;20.924;2024-01-10T01:39:57;90.70;;;29.60;;
56173;SDS011;42058;52.308;20.924;2024-01-10T01:42:23;113.30;;;33.60;;
56173;SDS011;42058;52.308;20.924;2024-01-10T01:44:49;89.70;;;30.40;;
56173;SDS011;42058;52.308;20.924;2024-01-10T01:47:15;82.90;;;26.80;;
56173;SDS011;42058;52.308;20.924;2024-01-10T01:49:44;90.30;;;30.00;;
56173;SDS011;42058;52.308;20.924;2024-01-10T01:52:11;102.50;;;33.00;;
56173;SDS011;42058;52.308;20.924;2024-01-10T01:54:37;100.60;;;32.70;;
56173;SDS011;42058;52.308;20.924;2024-01-10T01:57:04;85.80;;;27.90;;
56173;SDS011;42058;52.308;20.924;2024-01-10T01:59:30;95.10;;;30.80;;
56173;SDS011;42058;52.308;20.924;2024-01-10T02:01:56;119.80;;;35.90;;
56173;SDS011;42058;52.308;20.924;2024-01-10T02:04:28;99.00;;;31.90;;
56173;SDS011;42058;52.308;20.924;2024-01-10T02:06:56;60.30;;;22.00;;
56173;SDS011;42058;52.308;20.924;2024-01-10T02:09:22;81.90;;;26.10;;
56173;SDS011;42058;52.308;20.924;2024-01-10T02:11:48;104.00;;;32.20;;
56173;SDS011;42058;52.308;20.924;2024-01-10T02:14:15;94.20;;;31.60;;
56173;SDS011;42058;52.308;20.924;2024-01-10T02:16:42;115.60;;;33.80;;
56173;SDS011;42058;52.308;20.924;2024-01-10T02:19:21;93.40;;;31.80;;
56173;SDS011;42058;52.308;20.924;2024-01-10T02:21:49;86.50;;;28.80;;
56173;SDS011;42058;52.308;20.924;2024-01-10T02:24:15;89.70;;;31.30;;
56173;SDS011;42058;52.308;20.924;2024-01-10T02:26:42;106.30;;;32.30;;
56173;SDS011;42058;52.308;20.924;2024-01-10T02:29:08;84.40;;;25.20;;
56173;SDS011;42058;52.308;20.924;2024-01-10T02:31:35;92.70;;;30.10;;
56173;SDS011;42058;52.308;20.924;2024-01-10T02:34:01;119.40;;;36.10;;
56173;SDS011;42058;52.308;20.924;2024-01-10T02:36:28;87.00;;;31.80;;
56173;SDS011;42058;52.308;20.924;2024-01-10T02:38:54;105.50;;;35.80;;
56173;SDS011;42058;52.308;20.924;2024-01-10T02:41:20;86.60;;;30.50;;
56173;SDS011;42058;52.308;20.924;2024-01-10T02:43:47;108.10;;;35.80;;
56173;SDS011;42058;52.308;20.924;2024-01-10T02:46:13;107.40;;;33.90;;
56173;SDS011;42058;52.308;20.924;2024-01-10T02:48:39;94.20;;;29.70;;
56173;SDS011;42058;52.308;20.924;2024-01-10T02:51:06;93.70;;;29.90;;
56173;SDS011;42058;52.308;20.924;2024-01-10T02:53:32;88.50;;;31.90;;
56173;SDS011;42058;52.308;20.924;2024-01-10T02:55:59;77.00;;;26.90;;
56173;SDS011;42058;52.308;20.924;2024-01-10T02:58:25;103.30;;;31.60;;
56173;SDS011;42058;52.308;20.924;2024-01-10T03:00:51;97.20;;;32.30;;
56173;SDS011;42058;52.308;20.924;2024-01-10T03:03:17;76.00;;;24.70;;
56173;SDS011;42058;52.308;20.924;2024-01-10T03:05:44;101.10;;;31.20;;
56173;SDS011;42058;52.308;20.924;2024-01-10T03:08:10;81.80;;;26.10;;
56173;SDS011;42058;52.308;20.924;2024-01-10T03:10:36;92.90;;;29.30;;
56173;SDS011;42058;52.308;20.924;2024-01-10T03:13:03;79.10;;;27.20;;
56173;SDS011;42058;52.308;20.924;2024-01-10T03:15:29;86.50;;;29.80;;
56173;SDS011;42058;52.308;20.924;2024-01-10T03:17:56;97.30;;;31.80;;
56173;SDS011;42058;52.308;20.924;2024-01-10T03:20:23;92.60;;;30.10;;
56173;SDS011;42058;52.308;20.924;2024-01-10T03:22:49;89.80;;;29.70;;
56173;SDS011;42058;52.308;20.924;2024-01-10T03:25:16;84.70;;;27.30;;
56173;SDS011;42058;52.308;20.924;2024-01-10T03:27:42;92.80;;;32.00;;
56173;SDS011;42058;52.308;20.924;2024-01-10T03:30:08;93.40;;;32.30;;
56173;SDS011;42058;52.308;20.924;2024-01-10T03:32:35;87.70;;;29.30;;
56173;SDS011;42058;52.308;20.924;2024-01-10T03:35:01;83.30;;;26.60;;
56173;SDS011;42058;52.308;20.924;2024-01-10T03:37:28;87.90;;;27.00;;
56173;SDS011;42058;52.308;20.924;2024-01-10T03:39:54;91.40;;;29.90;;
56173;SDS011;42058;52.308;20.924;2024-01-10T03:42:20;91.20;;;30.20;;
56173;SDS011;42058;52.308;20.924;2024-01-10T03:44:47;102.60;;;33.90;;
56173;SDS011;42058;52.308;20.924;2024-01-10T03:47:13;86.70;;;30.30;;
56173;SDS011;42058;52.308;20.924;2024-01-10T03:49:39;87.50;;;29.90;;
56173;SDS011;42058;52.308;20.924;2024-01-10T03:52:05;94.70;;;32.20;;
56173;SDS011;42058;52.308;20.924;2024-01-10T03:54:32;100.70;;;33.20;;
56173;SDS011;42058;52.308;20.924;2024-01-10T03:56:59;89.90;;;27.80;;
56173;SDS011;42058;52.308;20.924;2024-01-10T03:59:26;107.50;;;31.50;;
56173;SDS011;42058;52.308;20.924;2024-01-10T04:01:53;109.40;;;34.00;;
56173;SDS011;42058;52.308;20.924;2024-01-10T04:04:19;91.40;;;30.20;;
56173;SDS011;42058;52.308;20.924;2024-01-10T04:06:45;79.90;;;27.50;;
56173;SDS011;42058;52.308;20.924;2024-01-10T04:09:12;82.60;;;27.60;;
56173;SDS011;42058;52.308;20.924;2024-01-10T04:11:38;75.10;;;26.60;;
56173;SDS011;42058;52.308;20.924;2024-01-10T04:14:05;99.50;;;31.30;;
56173;SDS011;42058;52.308;20.924;2024-01-10T04:16:32;97.50;;;32.10;;
56173;SDS011;42058;52.308;20.924;2024-01-10T04:18:58;109.40;;;34.30;;
56173;SDS011;42058;52.308;20.924;2024-01-10T04:21:24;82.10;;;31.00;;
56173;SDS011;42058;52.308;20.924;2024-01-10T04:23:50;92.10;;;31.60;;
56173;SDS011;42058;52.308;20.924;2024-01-10T04:26:18;93.80;;;30.90;;
56173;SDS011;42058;52.308;20.924;2024-01-10T04:28:44;105.00;;;31.50;;
56173;SDS011;42058;52.308;20.924;2024-01-10T04:31:10;87.90;;;28.70;;
56173;SDS011;42058;52.308;20.924;2024-01-10T04:33:37;85.20;;;31.40;;
56173;SDS011;42058;52.308;20.924;2024-01-10T04:36:03;88.30;;;27.70;;
56173;SDS011;42058;52.308;20.924;2024-01-10T04:38:29;93.70;;;31.30;;
56173;SDS011;42058;52.308;20.924;2024-01-10T04:40:55;76.70;;;27.00;;
56173;SDS011;42058;52.308;20.924;2024-01-10T04:43:22;89.70;;;28.50;;
56173;SDS011;42058;52.308;20.924;2024-01-10T04:45:48;79.50;;;28.00;;
56173;SDS011;42058;52.308;20.924;2024-01-10T04:48:14;82.90;;;28.10;;
56173;SDS011;42058;52.308;20.924;2024-01-10T04:50:40;95.90;;;31.70;;
56173;SDS011;42058;52.308;20.924;2024-01-10T04:53:07;69.30;;;26.70;;
56173;SDS011;42058;52.308;20.924;2024-01-10T04:55:34;108.30;;;33.90;;
56173;SDS011;42058;52.308;20.924;2024-01-10T04:58:00;97.70;;;32.50;;
56173;SDS011;42058;52.308;20.924;2024-01-10T05:00:27;86.10;;;30.70;;
56173;SDS011;42058;52.308;20.924;2024-01-10T05:02:53;101.90;;;33.90;;
56173;SDS011;42058;52.308;20.924;2024-01-10T05:05:20;89.90;;;31.50;;
56173;SDS011;42058;52.308;20.924;2024-01-10T05:07:49;85.00;;;28.50;;
56173;SDS011;42058;52.308;20.924;2024-01-10T05:10:16;94.50;;;29.00;;
56173;SDS011;42058;52.308;20.924;2024-01-10T05:12:43;115.50;;;37.80;;
56173;SDS011;42058;52.308;20.924;2024-01-10T05:15:09;93.90;;;27.00;;
56173;SDS011;42058;52.308;20.924;2024-01-10T05:17:35;72.90;;;26.10;;
56173;SDS011;42058;52.308;20.924;2024-01-10T05:20:02;96.70;;;30.60;;
56173;SDS011;42058;52.308;20.924;2024-01-10T05:22:28;101.50;;;34.30;;
56173;SDS011;42058;52.308;20.924;2024-01-10T05:24:55;103.50;;;33.00;;
56173;SDS011;42058;52.308;20.924;2024-01-10T05:27:21;101.20;;;32.60;;
56173;SDS011;42058;52.308;20.924;2024-01-10T05:29:47;104.80;;;35.70;;
56173;SDS011;42058;52.308;20.924;2024-01-10T05:32:14;86.90;;;26.60;;
56173;SDS011;42058;52.308;20.924;2024-01-10T05:34:40;80.50;;;27.60;;
56173;SDS011;42058;52.308;20.924;2024-01-10T05:37:07;84.50;;;28.80;;
56173;SDS011;42058;52.308;20.924;2024-01-10T05:39:33;103.70;;;35.90;;
56173;SDS011;42058;52.308;20.924;2024-01-10T05:42:00;92.60;;;29.50;;
56173;SDS011;42058;52.308;20.924;2024-01-10T05:44:28;95.00;;;31.90;;
56173;SDS011;42058;52.308;20.924;2024-01-10T05:46:55;88.00;;;31.00;;
56173;SDS011;42058;52.308;20.924;2024-01-10T05:49:25;89.80;;;31.30;;
56173;SDS011;42058;52.308;20.924;2024-01-10T05:51:52;97.20;;;31.00;;
56173;SDS011;42058;52.308;20.924;2024-01-10T05:54:18;76.50;;;27.70;;
56173;SDS011;42058;52.308;20.924;2024-01-10T05:56:44;80.50;;;26.40;;
56173;SDS011;42058;52.308;20.924;2024-01-10T05:59:10;77.50;;;27.70;;
56173;SDS011;42058;52.308;20.924;2024-01-10T06:01:42;94.90;;;31.10;;
56173;SDS011;42058;52.308;20.924;2024-01-10T06:04:08;75.80;;;26.50;;
56173;SDS011;42058;52.308;20.924;2024-01-10T06:06:35;74.50;;;26.90;;
56173;SDS011;42058;52.308;20.924;2024-01-10T06:09:01;77.10;;;25.90;;
56173;SDS011;42058;52.308;20.924;2024-01-10T06:11:28;92.60;;;30.80;;
56173;SDS011;42058;52.308;20.924;2024-01-10T06:13:55;103.80;;;33.80;;
56173;SDS011;42058;52.308;20.924;2024-01-10T06:16:23;94.10;;;32.10;;
56173;SDS011;42058;52.308;20.924;2024-01-10T06:18:50;107.40;;;34.00;;
56173;SDS011;42058;52.308;20.924;2024-01-10T06:21:16;86.90;;;30.10;;
56173;SDS011;42058;52.308;20.924;2024-01-10T06:23:43;81.20;;;28.90;;
56173;SDS011;42058;52.308;20.924;2024-01-10T06:26:09;82.20;;;29.20;;
56173;SDS011;42058;52.308;20.924;2024-01-10T06:28:35;92.00;;;31.70;;
56173;SDS011;42058;52.308;20.924;2024-01-10T06:31:02;78.20;;;25.90;;
56173;SDS011;42058;52.308;20.924;2024-01-10T06:33:28;67.60;;;24.40;;
56173;SDS011;42058;52.308;20.924;2024-01-10T06:35:55;75.20;;;26.10;;
56173;SDS011;42058;52.308;20.924;2024-01-10T06:38:21;57.00;;;19.30;;
56173;SDS011;42058;52.308;20.924;2024-01-10T06:40:48;91.20;;;31.30;;
56173;SDS011;42058;52.308;20.924;2024-01-10T06:43:14;52.90;;;20.40;;
56173;SDS011;42058;52.308;20.924;2024-01-10T06:45:41;61.10;;;21.20;;
56173;SDS011;42058;52.308;20.924;2024-01-10T06:48:08;69.60;;;24.80;;
56173;SDS011;42058;52.308;20.924;2024-01-10T06:50:35;83.70;;;29.10;;
56173;SDS011;42058;52.308;20.924;2024-01-10T06:53:02;94.50;;;30.10;;
56173;SDS011;42058;52.308;20.924;2024-01-10T06:55:29;69.20;;;25.10;;
56173;SDS011;42058;52.308;20.924;2024-01-10T06:57:56;79.00;;;23.80;;
56173;SDS011;42058;52.308;20.924;2024-01-10T07:00:22;64.60;;;21.20;;
56173;SDS011;42058;52.308;20.924;2024-01-10T07:02:49;74.20;;;27.20;;
56173;SDS011;42058;52.308;20.924;2024-01-10T07:05:15;53.40;;;19.20;;
56173;SDS011;42058;52.308;20.924;2024-01-10T07:07:42;72.50;;;23.50;;
56173;SDS011;42058;52.308;20.924;2024-01-10T07:10:09;56.20;;;18.60;;
56173;SDS011;42058;52.308;20.924;2024-01-10T07:12:36;59.10;;;22.80;;
56173;SDS011;42058;52.308;20.924;2024-01-10T07:15:03;55.20;;;18.90;;
56173;SDS011;42058;52.308;20.924;2024-01-10T07:17:29;75.90;;;24.50;;
56173;SDS011;42058;52.308;20.924;2024-01-10T07:19:56;62.80;;;21.70;;
56173;SDS011;42058;52.308;20.924;2024-01-10T07:22:22;50.20;;;19.20;;
56173;SDS011;42058;52.308;20.924;2024-01-10T07:24:49;69.00;;;24.10;;
56173;SDS011;42058;52.308;20.924;2024-01-10T07:27:15;77.10;;;24.90;;
56173;SDS011;42058;52.308;20.924;2024-01-10T07:29:41;83.00;;;27.50;;
56173;SDS011;42058;52.308;20.924;2024-01-10T07:32:07;59.60;;;22.20;;
56173;SDS011;42058;52.308;20.924;2024-01-10T07:34:37;69.80;;;25.00;;
56173;SDS011;42058;52.308;20.924;2024-01-10T07:37:04;69.70;;;25.30;;
56173;SDS011;42058;52.308;20.924;2024-01-10T07:39:30;76.60;;;29.20;;
56173;SDS011;42058;52.308;20.924;2024-01-10T07:41:56;101.10;;;34.50;;
56173;SDS011;42058;52.308;20.924;2024-01-10T07:44:23;85.20;;;30.80;;
56173;SDS011;42058;52.308;20.924;2024-01-10T07:46:50;75.00;;;24.60;;
56173;SDS011;42058;52.308;20.924;2024-01-10T07:49:21;84.90;;;30.70;;
56173;SDS011;42058;52.308;20.924;2024-01-10T07:51:47;93.50;;;33.10;;
56173;SDS011;42058;52.308;20.924;2024-01-10T07:54:14;94.20;;;33.80;;
56173;SDS011;42058;52.308;20.924;2024-01-10T07:56:40;83.20;;;28.50;;
56173;SDS011;42058;52.308;20.924;2024-01-10T07:59:07;98.20;;;31.60;;
56173;SDS011;42058;52.308;20.924;2024-01-10T08:01:33;68.70;;;26.10;;
56173;SDS011;42058;52.308;20.924;2024-01-10T08:04:00;94.10;;;34.40;;
56173;SDS011;42058;52.308;20.924;2024-01-10T08:06:26;78.50;;;27.60;;
56173;SDS011;42058;52.308;20.924;2024-01-10T08:08:59;97.00;;;32.50;;
56173;SDS011;42058;52.308;20.924;2024-01-10T08:11:25;116.50;;;37.10;;
56173;SDS011;42058;52.308;20.924;2024-01-10T08:13:51;109.60;;;35.30;;
56173;SDS011;42058;52.308;20.924;2024-01-10T08:16:18;76.60;;;27.00;;
56173;SDS011;42058;52.308;20.924;2024-01-10T08:18:44;96.50;;;34.10;;
56173;SDS011;42058;52.308;20.924;2024-01-10T08:21:11;74.90;;;27.00;;
56173;SDS011;42058;52.308;20.924;2024-01-10T08:23:38;79.50;;;28.60;;
56173;SDS011;42058;52.308;20.924;2024-01-10T08:26:06;87.90;;;29.90;;
56173;SDS011;42058;52.308;20.924;2024-01-10T08:28:34;79.50;;;25.90;;
56173;SDS011;42058;52.308;20.924;2024-01-10T08:31:00;80.40;;;28.70;;
56173;SDS011;42058;52.308;20.924;2024-01-10T08:33:31;76.90;;;28.00;;
56173;SDS011;42058;52.308;20.924;2024-01-10T08:35:57;65.80;;;22.90;;
56173;SDS011;42058;52.308;20.924;2024-01-10T08:38:24;74.60;;;26.70;;
56173;SDS011;42058;52.308;20.924;2024-01-10T08:40:51;67.70;;;22.90;;
56173;SDS011;42058;52.308;20.924;2024-01-10T08:43:17;74.20;;;26.70;;
56173;SDS011;42058;52.308;20.924;2024-01-10T08:45:44;60.70;;;23.70;;
56173;SDS011;42058;52.308;20.924;2024-01-10T08:48:10;68.80;;;24.20;;
56173;SDS011;42058;52.308;20.924;2024-01-10T08:50:39;65.20;;;23.40;;
56173;SDS011;42058;52.308;20.924;2024-01-10T08:53:05;98.90;;;30.60;;
56173;SDS011;42058;52.308;20.924;2024-01-10T08:55:32;59.80;;;23.90;;
56173;SDS011;42058;52.308;20.924;2024-01-10T08:57:58;61.90;;;22.30;;
56173;SDS011;42058;52.308;20.924;2024-01-10T09:00:24;63.50;;;20.00;;
56173;SDS011;42058;52.308;20.924;2024-01-10T09:02:50;54.90;;;19.70;;
56173;SDS011;42058;52.308;20.924;2024-01-10T09:05:18;63.70;;;20.80;;
56173;SDS011;42058;52.308;20.924;2024-01-10T09:07:44;64.90;;;23.10;;
56173;SDS011;42058;52.308;20.924;2024-01-10T09:10:10;60.00;;;22.90;;
56173;SDS011;42058;52.308;20.924;2024-01-10T09:12:37;69.00;;;25.70;;
56173;SDS011;42058;52.308;20.924;2024-01-10T09:15:03;54.50;;;21.90;;
56173;SDS011;42058;52.308;20.924;2024-01-10T09:17:30;61.00;;;22.40;;
56173;SDS011;42058;52.308;20.924;2024-01-10T09:19:56;54.50;;;22.20;;
56173;SDS011;42058;52.308;20.924;2024-01-10T09:22:23;53.50;;;21.10;;
56173;SDS011;42058;52.308;20.924;2024-01-10T09:24:49;67.60;;;24.20;;
56173;SDS011;42058;52.308;20.924;2024-01-10T09:27:16;69.30;;;24.20;;
56173;SDS011;42058;52.308;20.924;2024-01-10T09:29:42;70.20;;;23.90;;
56173;SDS011;42058;52.308;20.924;2024-01-10T09:32:08;60.80;;;22.50;;
56173;SDS011;42058;52.308;20.924;2024-01-10T09:34:35;65.30;;;22.30;;
56173;SDS011;42058;52.308;20.924;2024-01-10T09:37:01;55.80;;;23.00;;
56173;SDS011;42058;52.308;20.924;2024-01-10T09:39:28;52.70;;;19.10;;
56173;SDS011;42058;52.308;20.924;2024-01-10T09:41:55;57.40;;;21.90;;
56173;SDS011;42058;52.308;20.924;2024-01-10T09:44:21;58.80;;;21.50;;
56173;SDS011;42058;52.308;20.924;2024-01-10T09:46:49;60.20;;;19.70;;
56173;SDS011;42058;52.308;20.924;2024-01-10T09:49:18;53.90;;;18.90;;
56173;SDS011;42058;52.308;20.924;2024-01-10T09:51:48;63.00;;;22.60;;
56173;SDS011;42058;52.308;20.924;2024-01-10T09:54:15;53.70;;;21.60;;
56173;SDS011;42058;52.308;20.924;2024-01-10T09:56:42;62.10;;;24.60;;
56173;SDS011;42058;52.308;20.924;2024-01-10T09:59:08;52.00;;;20.20;;
56173;SDS011;42058;52.308;20.924;2024-01-10T10:01:37;45.70;;;17.60;;
56173;SDS011;42058;52.308;20.924;2024-01-10T10:04:05;52.20;;;20.00;;
56173;SDS011;42058;52.308;20.924;2024-01-10T10:06:33;48.30;;;17.50;;
56173;SDS011;42058;52.308;20.924;2024-01-10T10:09:00;55.00;;;21.70;;
56173;SDS011;42058;52.308;20.924;2024-01-10T10:11:27;58.10;;;20.10;;
56173;SDS011;42058;52.308;20.924;2024-01-10T10:13:53;50.00;;;19.90;;
56173;SDS011;42058;52.308;20.924;2024-01-10T10:16:23;48.20;;;17.70;;
56173;SDS011;42058;52.308;20.924;2024-01-10T10:18:54;51.20;;;19.40;;
56173;SDS011;42058;52.308;20.924;2024-01-10T10:21:25;45.40;;;18.00;;
56173;SDS011;42058;52.308;20.924;2024-01-10T10:23:58;59.50;;;22.40;;
56173;SDS011;42058;52.308;20.924;2024-01-10T10:26:26;58.00;;;19.50;;
56173;SDS011;42058;52.308;20.924;2024-01-10T10:28:53;67.80;;;22.30;;
56173;SDS011;42058;52.308;20.924;2024-01-10T10:31:20;58.70;;;22.80;;
56173;SDS011;42058;52.308;20.924;2024-01-10T10:33:47;58.60;;;21.00;;
56173;SDS011;42058;52.308;20.924;2024-01-10T10:36:16;57.40;;;20.40;;
56173;SDS011;42058;52.308;20.924;2024-01-10T10:38:43;47.20;;;18.80;;
56173;SDS011;42058;52.308;20.924;2024-01-10T10:41:09;59.20;;;22.00;;
56173;SDS011;42058;52.308;20.924;2024-01-10T10:43:39;64.10;;;23.60;;
56173;SDS011;42058;52.308;20.924;2024-01-10T10:46:07;55.30;;;21.20;;
56173;SDS011;42058;52.308;20.924;2024-01-10T10:48:42;52.30;;;20.10;;
56173;SDS011;42058;52.308;20.924;2024-01-10T10:51:11;52.30;;;18.00;;
56173;SDS011;42058;52.308;20.924;2024-01-10T10:53:42;52.50;;;19.60;;
56173;SDS011;42058;52.308;20.924;2024-01-10T10:56:12;51.90;;;20.50;;
56173;SDS011;42058;52.308;20.924;2024-01-10T10:58:40;56.80;;;20.70;;
56173;SDS011;42058;52.308;20.924;2024-01-10T11:01:08;49.70;;;19.40;;
56173;SDS011;42058;52.308;20.924;2024-01-10T11:03:37;49.10;;;19.30;;
56173;SDS011;42058;52.308;20.924;2024-01-10T11:06:13;48.90;;;20.60;;
56173;SDS011;42058;52.308;20.924;2024-01-10T11:08:43;53.50;;;20.60;;
56173;SDS011;42058;52.308;20.924;2024-01-10T11:17:35;43.30;;;16.90;;
56173;SDS011;42058;52.308;20.924;2024-01-10T11:25:12;44.50;;;18.30;;
56173;SDS011;42058;52.308;20.924;2024-01-10T11:27:38;54.60;;;19.00;;
56173;SDS011;42058;52.308;20.924;2024-01-10T11:30:04;48.10;;;17.60;;
56173;SDS011;42058;52.308;20.924;2024-01-10T11:32:31;62.50;;;20.20;;
56173;SDS011;42058;52.308;20.924;2024-01-10T11:34:59;48.40;;;17.30;;
56173;SDS011;42058;52.308;20.924;2024-01-10T11:37:39;46.40;;;18.10;;
56173;SDS011;42058;52.308;20.924;2024-01-10T11:40:08;45.50;;;18.50;;
56173;SDS011;42058;52.308;20.924;2024-01-10T11:42:40;43.40;;;16.10;;
56173;SDS011;42058;52.308;20.924;2024-01-10T11:45:35;43.40;;;17.40;;
56173;SDS011;42058;52.308;20.924;2024-01-10T11:48:02;43.90;;;16.90;;
56173;SDS011;42058;52.308;20.924;2024-01-10T11:50:29;40.30;;;15.70;;
56173;SDS011;42058;52.308;20.924;2024-01-10T11:52:57;46.80;;;18.40;;
56173;SDS011;42058;52.308;20.924;2024-01-10T11:58:18;39.00;;;15.90;;
56173;SDS011;42058;52.308;20.924;2024-01-10T12:00:44;27.90;;;11.00;;
56173;SDS011;42058;52.308;20.924;2024-01-10T12:03:12;46.10;;;17.00;;
56173;SDS011;42058;52.308;20.924;2024-01-10T12:05:39;49.30;;;17.30;;
56173;SDS011;42058;52.308;20.924;2024-01-10T12:08:08;42.20;;;18.10;;
56173;SDS011;42058;52.308;20.924;2024-01-10T12:10:34;34.30;;;13.80;;
56173;SDS011;42058;52.308;20.924;2024-01-10T12:13:03;49.80;;;16.70;;
56173;SDS011;42058;52.308;20.924;2024-01-10T12:15:29;44.00;;;14.80;;
56173;SDS011;42058;52.308;20.924;2024-01-10T12:17:56;43.60;;;16.00;;
56173;SDS011;42058;52.308;20.924;2024-01-10T12:20:22;41.30;;;15.30;;
56173;SDS011;42058;52.308;20.924;2024-01-10T12:22:48;45.40;;;17.10;;
56173;SDS011;42058;52.308;20.924;2024-01-10T12:25:15;49.50;;;17.30;;
56173;SDS011;42058;52.308;20.924;2024-01-10T12:27:41;30.00;;;12.00;;
56173;SDS011;42058;52.308;20.924;2024-01-10T12:30:07;44.80;;;16.10;;
56173;SDS011;42058;52.308;20.924;2024-01-10T12:32:34;51.70;;;17.20;;
56173;SDS011;42058;52.308;20.924;2024-01-10T12:35:04;31.20;;;12.80;;
56173;SDS011;42058;52.308;20.924;2024-01-10T12:37:32;46.20;;;16.30;;
56173;SDS011;42058;52.308;20.924;2024-01-10T12:39:59;40.10;;;15.50;;
56173;SDS011;42058;52.308;20.924;2024-01-10T12:42:25;40.70;;;15.70;;
56173;SDS011;42058;52.308;20.924;2024-01-10T12:44:51;47.40;;;16.70;;
56173;SDS011;42058;52.308;20.924;2024-01-10T12:47:19;53.00;;;17.20;;
56173;SDS011;42058;52.308;20.924;2024-01-10T12:49:47;54.40;;;19.80;;
56173;SDS011;42058;52.308;20.924;2024-01-10T12:52:13;48.10;;;15.10;;
56173;SDS011;42058;52.308;20.924;2024-01-10T12:54:44;49.10;;;18.10;;
56173;SDS011;42058;52.308;20.924;2024-01-10T12:57:10;49.00;;;18.90;;
56173;SDS011;42058;52.308;20.924;2024-01-10T12:59:36;41.60;;;16.30;;
56173;SDS011;42058;52.308;20.924;2024-01-10T13:02:03;41.40;;;15.70;;
56173;SDS011;42058;52.308;20.924;2024-01-10T13:04:29;47.10;;;18.20;;
56173;SDS011;42058;52.308;20.924;2024-01-10T13:06:56;43.50;;;16.80;;
56173;SDS011;42058;52.308;20.924;2024-01-10T13:09:22;46.80;;;17.00;;
56173;SDS011;42058;52.308;20.924;2024-01-10T13:11:48;57.70;;;20.60;;
56173;SDS011;42058;52.308;20.924;2024-01-10T13:14:14;61.60;;;20.60;;
56173;SDS011;42058;52.308;20.924;2024-01-10T13:16:42;48.20;;;17.60;;
56173;SDS011;42058;52.308;20.924;2024-01-10T13:19:22;50.70;;;19.10;;
56173;SDS011;42058;52.308;20.924;2024-01-10T13:21:48;31.90;;;13.70;;
56173;SDS011;42058;52.308;20.924;2024-01-10T13:24:15;37.50;;;14.80;;
56173;SDS011;42058;52.308;20.924;2024-01-10T13:26:42;44.50;;;17.10;;
56173;SDS011;42058;52.308;20.924;2024-01-10T13:29:09;40.00;;;16.10;;
56173;SDS011;42058;52.308;20.924;2024-01-10T13:31:36;48.90;;;18.20;;
56173;SDS011;42058;52.308;20.924;2024-01-10T13:34:02;44.10;;;17.40;;
56173;SDS011;42058;52.308;20.924;2024-01-10T13:36:30;40.90;;;15.70;;
56173;SDS011;42058;52.308;20.924;2024-01-10T13:38:56;50.40;;;18.50;;
56173;SDS011;42058;52.308;20.924;2024-01-10T13:41:23;50.60;;;18.50;;
56173;SDS011;42058;52.308;20.924;2024-01-10T13:43:50;47.40;;;17.90;;
56173;SDS011;42058;52.308;20.924;2024-01-10T13:46:16;48.10;;;17.80;;
56173;SDS011;42058;52.308;20.924;2024-01-10T13:48:43;39.40;;;16.70;;
56173;SDS011;42058;52.308;20.924;2024-01-10T13:51:10;47.80;;;16.50;;
56173;SDS011;42058;52.308;20.924;2024-01-10T13:53:36;54.40;;;18.20;;
56173;SDS011;42058;52.308;20.924;2024-01-10T13:56:02;53.30;;;18.10;;
56173;SDS011;42058;52.308;20.924;2024-01-10T13:58:29;52.00;;;17.30;;
56173;SDS011;42058;52.308;20.924;2024-01-10T14:00:56;46.10;;;18.30;;
56173;SDS011;42058;52.308;20.924;2024-01-10T14:03:22;44.60;;;18.20;;
56173;SDS011;42058;52.308;20.924;2024-01-10T14:05:49;42.10;;;16.80;;
56173;SDS011;42058;52.308;20.924;2024-01-10T14:08:16;48.60;;;17.70;;
56173;SDS011;42058;52.308;20.924;2024-01-10T14:10:42;52.20;;;18.20;;
56173;SDS011;42058;52.308;20.924;2024-01-10T14:13:09;43.20;;;17.80;;
56173;SDS011;42058;52.308;20.924;2024-01-10T14:15:36;47.80;;;17.50;;
56173;SDS011;42058;52.308;20.924;2024-01-10T14:18:03;60.50;;;21.30;;
56173;SDS011;42058;52.308;20.924;2024-01-10T14:20:30;46.10;;;16.50;;